createdAt,value
2022-08-07T00:02:40.823Z,14.31
2022-08-07T00:05:08.885Z,14.26
2022-08-07T00:07:41.127Z,14.24
2022-08-07T00:10:25.912Z,14.20
2022-08-07T00:12:59.853Z,14.18
2022-08-07T00:15:37.891Z,14.18
2022-08-07T00:18:19.349Z,14.13
2022-08-07T00:20:49.982Z,14.07
2022-08-07T00:23:21.208Z,14.05
2022-08-07T00:26:00.267Z,13.97
2022-08-07T00:28:33.895Z,13.98
2022-08-07T00:31:12.208Z,13.96
2022-08-07T00:33:43.421Z,13.91
2022-08-07T00:36:17.849Z,13.90
2022-08-07T00:38:47.781Z,13.90
2022-08-07T00:41:28.523Z,13.87
2022-08-07T00:43:59.782Z,13.83
2022-08-07T00:46:34.115Z,13.84
2022-08-07T00:49:04.352Z,13.79
2022-08-07T00:51:56.883Z,13.79
2022-08-07T00:54:24.573Z,13.75
2022-08-07T00:56:56.838Z,13.74
2022-08-07T00:59:35.204Z,13.69
2022-08-07T01:02:06.370Z,13.66
2022-08-07T01:04:44.203Z,13.61
2022-08-07T01:07:14.734Z,13.59
2022-08-07T01:10:05.127Z,13.56
2022-08-07T01:12:37.764Z,13.57
2022-08-07T01:15:11.911Z,13.52
2022-08-07T01:17:47.502Z,13.50
2022-08-07T01:20:17.792Z,13.46
2022-08-07T01:23:12.328Z,13.42
2022-08-07T01:25:55.692Z,13.37
2022-08-07T01:28:27.574Z,13.35
2022-08-07T01:30:59.208Z,13.31
2022-08-07T01:33:53.674Z,13.27
2022-08-07T01:36:19.141Z,13.21
2022-08-07T01:39:09.837Z,13.22
2022-08-07T01:42:07.134Z,13.23
2022-08-07T01:44:34.771Z,13.15
2022-08-07T01:48:19.709Z,13.19
2022-08-07T01:49:56.152Z,13.12
2022-08-07T01:52:28.679Z,13.10
2022-08-07T01:55:03.849Z,13.10
2022-08-07T01:58:05.480Z,13.06
2022-08-07T02:00:32.326Z,13.05
2022-08-07T02:03:18.580Z,13.03
2022-08-07T02:06:08.866Z,12.98
2022-08-07T02:09:00.037Z,12.95
2022-08-07T02:12:03.309Z,12.95
2022-08-07T02:14:40.304Z,12.91
2022-08-07T02:17:26.446Z,12.90
2022-08-07T02:20:05.280Z,12.81
2022-08-07T02:22:43.766Z,12.82
2022-08-07T02:25:17.649Z,12.76
2022-08-07T02:28:02.071Z,12.76
2022-08-07T02:30:37.451Z,12.79
2022-08-07T02:33:09.361Z,12.76
2022-08-07T02:36:30.487Z,12.77
2022-08-07T02:38:36.402Z,12.69
2022-08-07T02:41:08.125Z,12.71
2022-08-07T02:43:48.918Z,12.70
2022-08-07T02:46:22.740Z,12.67
2022-08-07T02:48:56.266Z,12.66
2022-08-07T02:51:41.990Z,12.64
2022-08-07T02:54:14.561Z,12.60
2022-08-07T02:56:45.803Z,12.63
2022-08-07T02:59:24.195Z,12.59
2022-08-07T03:02:01.070Z,12.56
2022-08-07T03:04:32.665Z,12.57
2022-08-07T03:07:10.430Z,12.55
2022-08-07T03:09:47.214Z,12.54
2022-08-07T03:12:22.509Z,12.52
2022-08-07T03:15:07.766Z,12.52
2022-08-07T03:17:53.735Z,12.52
2022-08-07T03:20:25.550Z,12.31
2022-08-07T03:22:56.815Z,12.28
2022-08-07T03:25:32.465Z,12.28
2022-08-07T03:28:38.137Z,12.34
2022-08-07T03:31:24.637Z,12.26
2022-08-07T03:34:02.573Z,12.24
2022-08-07T03:36:37.357Z,12.26
2022-08-07T03:39:11.564Z,12.20
2022-08-07T03:41:47.448Z,12.20
2022-08-07T03:44:21.776Z,12.21
2022-08-07T03:47:13.949Z,12.17
2022-08-07T03:49:48.077Z,12.18
2022-08-07T03:52:26.819Z,12.21
2022-08-07T03:55:07.047Z,12.15
2022-08-07T03:58:33.470Z,12.16
2022-08-07T04:00:36.425Z,12.12
2022-08-07T04:03:10.058Z,12.07
2022-08-07T04:05:42.454Z,12.04
2022-08-07T04:08:22.322Z,12.05
2022-08-07T04:12:15.544Z,11.98
2022-08-07T04:14:10.745Z,11.96
2022-08-07T04:16:40.438Z,12.02
2022-08-07T04:19:51.115Z,11.92
2022-08-07T04:22:20.688Z,11.91
2022-08-07T04:24:53.222Z,12.04
2022-08-07T04:27:25.634Z,11.96
2022-08-07T04:30:02.099Z,12.00
2022-08-07T04:32:58.069Z,12.00
2022-08-07T04:35:35.135Z,11.99
2022-08-07T04:38:08.597Z,11.96
2022-08-07T04:40:43.893Z,11.96
2022-08-07T04:44:10.266Z,11.99
2022-08-07T04:46:25.929Z,11.98
2022-08-07T04:49:17.825Z,11.93
2022-08-07T04:52:02.227Z,11.94
2022-08-07T04:54:36.823Z,11.99
2022-08-07T04:58:29.160Z,11.94
2022-08-07T05:00:17.303Z,11.93
2022-08-07T05:02:57.923Z,11.94
2022-08-07T05:05:52.147Z,11.94
2022-08-07T05:09:00.147Z,11.96
2022-08-07T05:11:24.344Z,11.96
2022-08-07T05:14:53.264Z,12.02
2022-08-07T05:16:55.260Z,12.03
2022-08-07T05:19:32.718Z,11.99
2022-08-07T05:22:19.022Z,12.02
2022-08-07T05:25:00.656Z,12.00
2022-08-07T05:28:03.575Z,12.03
2022-08-07T05:30:30.013Z,12.04
2022-08-07T05:33:02.365Z,12.03
2022-08-07T05:35:41.772Z,12.06
2022-08-07T05:38:58.387Z,12.09
2022-08-07T05:41:12.293Z,12.06
2022-08-07T05:44:08.493Z,12.04
2022-08-07T05:46:37.898Z,12.19
2022-08-07T05:49:12.453Z,12.19
2022-08-07T05:51:47.183Z,12.22
2022-08-07T05:54:30.878Z,12.25
2022-08-07T05:57:15.692Z,12.24
2022-08-07T05:59:57.592Z,12.23
2022-08-07T06:02:33.088Z,12.29
2022-08-07T06:05:10.990Z,12.32
2022-08-07T06:08:09.206Z,12.37
2022-08-07T06:10:38.985Z,12.38
2022-08-07T06:13:15.527Z,12.44
2022-08-07T06:15:49.808Z,12.47
2022-08-07T06:18:27.940Z,12.49
2022-08-07T06:22:14.391Z,12.55
2022-08-07T06:24:38.242Z,12.55
2022-08-07T06:26:37.989Z,12.61
2022-08-07T06:29:11.576Z,12.66
2022-08-07T06:31:49.537Z,12.70
2022-08-07T06:34:21.658Z,12.66
2022-08-07T06:36:52.599Z,12.73
2022-08-07T06:40:12.929Z,12.79
2022-08-07T06:42:32.979Z,12.82
2022-08-07T06:45:18.295Z,12.86
2022-08-07T06:47:58.515Z,12.97
2022-08-07T06:50:33.321Z,12.96
2022-08-07T06:53:07.284Z,13.03
2022-08-07T06:56:00.836Z,13.16
2022-08-07T06:58:33.695Z,13.19
2022-08-07T07:01:14.206Z,13.28
2022-08-07T07:03:49.895Z,13.39
2022-08-07T07:06:26.731Z,13.49
2022-08-07T07:08:58.165Z,13.54
2022-08-07T07:12:08.622Z,13.66
2022-08-07T07:14:19.364Z,13.80
2022-08-07T07:16:54.747Z,13.96
2022-08-07T07:19:55.717Z,14.06
2022-08-07T07:22:36.909Z,14.21
2022-08-07T07:26:31.152Z,14.37
2022-08-07T07:28:29.509Z,14.51
2022-08-07T07:31:00.241Z,14.70
2022-08-07T07:33:33.826Z,14.84
2022-08-07T07:36:04.693Z,14.97
2022-08-07T07:38:36.329Z,15.11
2022-08-07T07:41:08.559Z,15.29
2022-08-07T07:44:14.749Z,15.46
2022-08-07T07:46:37.730Z,15.65
2022-08-07T07:50:36.038Z,15.80
2022-08-07T07:52:16.562Z,16.06
2022-08-07T07:54:50.541Z,16.27
2022-08-07T07:57:43.563Z,16.48
2022-08-07T08:00:29.850Z,16.75
2022-08-07T08:03:09.317Z,16.95
2022-08-07T08:05:54.732Z,17.19
2022-08-07T08:08:35.743Z,17.39
2022-08-07T08:11:13.601Z,17.65
2022-08-07T08:13:54.956Z,17.77
2022-08-07T08:16:31.043Z,17.97
2022-08-07T08:19:17.733Z,18.16
2022-08-07T08:22:07.862Z,18.37
2022-08-07T08:25:04.471Z,18.56
2022-08-07T08:27:56.744Z,18.81
2022-08-07T08:30:34.851Z,19.03
2022-08-07T08:33:15.086Z,19.28
2022-08-07T08:35:49.752Z,19.48
2022-08-07T08:38:25.939Z,19.69
2022-08-07T08:41:05.498Z,19.86
2022-08-07T08:43:42.472Z,20.03
2022-08-07T08:46:20.417Z,20.23
2022-08-07T08:48:58.584Z,20.38
2022-08-07T08:52:00.872Z,20.57
2022-08-07T08:54:31.437Z,20.74
2022-08-07T08:57:08.158Z,20.92
2022-08-07T08:59:48.189Z,21.06
2022-08-07T09:02:35.094Z,21.21
2022-08-07T09:05:18.242Z,21.36
2022-08-07T09:07:58.199Z,21.48
2022-08-07T09:10:36.679Z,21.63
2022-08-07T09:13:14.725Z,21.78
2022-08-07T09:16:20.257Z,21.89
2022-08-07T09:19:03.427Z,22.09
2022-08-07T09:22:09.695Z,22.23
2022-08-07T09:24:55.124Z,22.30
2022-08-07T09:27:59.679Z,22.45
2022-08-07T09:30:33.497Z,22.58
2022-08-07T09:33:16.816Z,22.69
2022-08-07T09:36:04.464Z,22.82
2022-08-07T09:38:43.582Z,23.00
2022-08-07T09:41:27.744Z,23.09
2022-08-07T09:44:40.447Z,23.20
2022-08-07T09:47:49.985Z,23.27
2022-08-07T09:50:18.205Z,23.40
2022-08-07T09:52:52.488Z,23.44
2022-08-07T09:55:36.916Z,23.49
2022-08-07T09:58:32.936Z,23.58
2022-08-07T10:01:51.943Z,23.64
2022-08-07T10:04:28.407Z,23.77
2022-08-07T10:07:24.525Z,23.85
2022-08-07T10:10:05.658Z,23.91
2022-08-07T10:12:58.540Z,24.04
2022-08-07T10:15:45.019Z,24.19
2022-08-07T10:18:46.432Z,24.26
2022-08-07T10:21:50.558Z,24.31
2022-08-07T10:24:30.011Z,24.41
2022-08-07T10:27:12.980Z,24.43
2022-08-07T10:30:01.265Z,24.47
2022-08-07T10:32:53.139Z,24.60
2022-08-07T10:35:55.567Z,24.58
2022-08-07T10:38:48.204Z,24.66
2022-08-07T10:41:53.077Z,24.68
2022-08-07T10:44:28.790Z,24.59
2022-08-07T10:47:18.795Z,24.63
2022-08-07T10:50:01.626Z,24.67
2022-08-07T10:52:37.778Z,24.77
2022-08-07T10:55:26.803Z,24.90
2022-08-07T10:58:13.619Z,24.86
2022-08-07T11:00:50.542Z,24.99
2022-08-07T11:03:37.648Z,25.02
2022-08-07T11:06:27.074Z,25.06
2022-08-07T11:09:11.117Z,25.06
2022-08-07T11:11:51.556Z,25.13
2022-08-07T11:14:44.399Z,25.16
2022-08-07T11:17:42.811Z,25.05
2022-08-07T11:20:16.103Z,25.10
2022-08-07T11:22:56.442Z,25.13
2022-08-07T11:25:42.549Z,25.21
2022-08-07T11:28:24.982Z,25.28
2022-08-07T11:30:59.780Z,25.37
2022-08-07T11:33:48.702Z,25.46
2022-08-07T11:36:41.618Z,25.51
2022-08-07T11:40:00.805Z,25.51
2022-08-07T11:42:37.994Z,25.48
2022-08-07T11:45:20.625Z,25.51
2022-08-07T11:48:13.819Z,25.53
2022-08-07T11:51:09.063Z,25.54
2022-08-07T11:54:01.520Z,25.48
2022-08-07T11:56:40.314Z,25.59
2022-08-07T12:00:10.736Z,25.60
2022-08-07T12:02:30.567Z,25.60
2022-08-07T12:05:15.292Z,25.59
2022-08-07T12:08:03.793Z,25.59
2022-08-07T12:10:41.926Z,25.59
2022-08-07T12:13:18.656Z,25.61
2022-08-07T12:16:14.761Z,25.61
2022-08-07T12:19:06.929Z,25.56
2022-08-07T12:21:56.051Z,25.61
2022-08-07T12:24:40.166Z,25.61
2022-08-07T12:27:15.891Z,25.67
2022-08-07T12:29:52.457Z,25.71
2022-08-07T12:32:39.802Z,25.77
2022-08-07T12:35:12.290Z,25.77
2022-08-07T12:38:10.056Z,25.84
2022-08-07T12:40:47.803Z,25.85
2022-08-07T12:44:02.762Z,25.87
2022-08-07T12:46:26.256Z,25.94
2022-08-07T12:49:39.419Z,26.01
2022-08-07T12:52:13.952Z,26.07
2022-08-07T12:54:55.059Z,26.05
2022-08-07T12:57:39.199Z,26.11
2022-08-07T13:00:32.592Z,26.11
2022-08-07T13:03:27.570Z,26.14
2022-08-07T13:06:27.094Z,26.20
2022-08-07T13:09:33.433Z,26.21
2022-08-07T13:12:10.443Z,26.28
2022-08-07T13:14:52.662Z,26.33
2022-08-07T13:17:42.283Z,26.28
2022-08-07T13:20:17.267Z,26.23
2022-08-07T13:22:55.774Z,26.26
2022-08-07T13:25:30.636Z,26.15
2022-08-07T13:28:10.646Z,26.14
2022-08-07T13:30:53.602Z,26.16
2022-08-07T13:34:33.243Z,26.18
2022-08-07T13:36:30.115Z,26.20
2022-08-07T13:39:13.162Z,26.21
2022-08-07T13:41:56.745Z,26.26
2022-08-07T13:44:34.502Z,26.30
2022-08-07T13:47:09.519Z,26.30
2022-08-07T13:50:34.934Z,26.28
2022-08-07T13:52:40.742Z,26.34
2022-08-07T13:55:19.151Z,26.36
2022-08-07T13:58:28.044Z,26.39
2022-08-07T14:01:08.862Z,26.44
2022-08-07T14:04:09.563Z,26.40
2022-08-07T14:06:34.664Z,26.38
2022-08-07T14:09:06.404Z,26.35
2022-08-07T14:12:00.001Z,26.34
2022-08-07T14:14:33.547Z,26.35
2022-08-07T14:17:32.033Z,26.35
2022-08-07T14:20:42.100Z,26.35
2022-08-07T14:22:53.749Z,26.37
2022-08-07T14:25:39.443Z,26.41
2022-08-07T14:28:32.063Z,26.43
2022-08-07T14:31:10.516Z,26.45
2022-08-07T14:33:44.704Z,26.50
2022-08-07T14:36:16.131Z,26.52
2022-08-07T14:38:50.539Z,26.54
2022-08-07T14:41:33.959Z,26.50
2022-08-07T14:44:25.265Z,26.46
2022-08-07T14:47:08.738Z,26.43
2022-08-07T14:49:57.739Z,26.33
2022-08-07T14:52:29.240Z,26.32
2022-08-07T14:55:00.691Z,26.27
2022-08-07T15:00:31.443Z,26.26
2022-08-07T15:03:17.482Z,26.28
2022-08-07T15:05:55.169Z,26.28
2022-08-07T15:08:50.215Z,26.29
2022-08-07T15:11:50.805Z,26.29
2022-08-07T15:14:19.557Z,26.28
2022-08-07T15:16:55.920Z,26.21
2022-08-07T15:25:19.632Z,26.18
2022-08-07T15:28:32.806Z,26.17
2022-08-07T15:31:04.977Z,26.10
2022-08-07T15:33:37.694Z,26.09
2022-08-07T15:36:12.843Z,26.12
2022-08-07T15:38:51.215Z,26.17
2022-08-07T15:42:44.165Z,26.20
2022-08-07T15:44:17.817Z,26.20
2022-08-07T15:50:04.006Z,26.21
2022-08-07T15:52:33.497Z,26.25
2022-08-07T15:55:12.118Z,26.27
2022-08-07T15:57:48.537Z,26.28
2022-08-07T16:00:32.114Z,26.25
2022-08-07T16:03:06.462Z,26.06
2022-08-07T16:05:42.452Z,26.13
2022-08-07T16:08:31.926Z,26.14
2022-08-07T16:11:26.671Z,26.09
2022-08-07T16:14:10.238Z,26.06
2022-08-07T16:16:51.538Z,26.04
2022-08-07T16:19:42.196Z,26.06
2022-08-07T16:22:55.084Z,26.01
2022-08-07T16:25:55.006Z,25.95
2022-08-07T16:30:07.141Z,25.94
2022-08-07T16:31:51.818Z,25.94
2022-08-07T16:34:36.248Z,25.92
2022-08-07T16:38:06.752Z,25.91
2022-08-07T16:41:01.615Z,25.87
2022-08-07T16:44:03.882Z,25.79
2022-08-07T16:47:05.730Z,25.71
2022-08-07T16:50:20.280Z,25.71
2022-08-07T16:53:55.312Z,25.66
2022-08-07T16:56:06.288Z,25.61
2022-08-07T16:59:10.356Z,25.58
2022-08-07T17:01:51.842Z,25.54
2022-08-07T17:04:33.983Z,25.51
2022-08-07T17:07:13.638Z,25.49
2022-08-07T17:10:05.427Z,25.47
2022-08-07T17:12:48.162Z,25.44
2022-08-07T17:15:44.386Z,25.39
2022-08-07T17:18:32.075Z,25.35
2022-08-07T17:21:01.906Z,25.38
2022-08-07T17:23:42.512Z,25.35
2022-08-07T17:26:23.362Z,25.39
2022-08-07T17:30:12.647Z,25.37
2022-08-07T17:32:12.562Z,25.41
2022-08-07T17:35:49.557Z,25.37
2022-08-07T17:38:05.682Z,25.34
2022-08-07T17:40:43.498Z,25.28
2022-08-07T17:44:03.129Z,25.22
2022-08-07T17:46:21.064Z,25.34
2022-08-07T17:49:09.418Z,25.33
2022-08-07T17:52:00.124Z,25.34
2022-08-07T17:54:53.336Z,25.29
2022-08-07T17:57:32.108Z,25.25
2022-08-07T18:00:27.576Z,25.18
2022-08-07T18:03:17.923Z,25.10
2022-08-07T18:06:01.434Z,25.04
2022-08-07T18:08:35.801Z,24.98
2022-08-07T18:12:11.867Z,24.87
2022-08-07T18:14:24.130Z,24.81
2022-08-07T18:16:58.135Z,24.75
2022-08-07T18:21:08.440Z,24.65
2022-08-07T18:22:34.000Z,24.60
2022-08-07T18:25:18.849Z,24.51
2022-08-07T18:28:34.517Z,24.38
2022-08-07T18:31:10.361Z,24.36
2022-08-07T18:33:55.970Z,24.34
2022-08-07T18:36:35.313Z,24.28
2022-08-07T18:40:05.239Z,24.24
2022-08-07T18:42:19.648Z,24.16
2022-08-07T18:45:43.689Z,24.14
2022-08-07T18:48:00.749Z,24.05
2022-08-07T18:50:46.459Z,24.01
2022-08-07T18:53:36.737Z,23.96
2022-08-07T18:56:15.934Z,23.88
2022-08-07T18:58:57.627Z,23.81
2022-08-07T19:02:32.159Z,23.72
2022-08-07T19:04:54.386Z,23.67
2022-08-07T19:07:35.546Z,23.56
2022-08-07T19:10:18.535Z,23.49
2022-08-07T19:12:59.599Z,23.40
2022-08-07T19:16:05.929Z,23.35
2022-08-07T19:18:45.139Z,23.28
2022-08-07T19:21:46.645Z,23.21
2022-08-07T19:24:30.875Z,23.10
2022-08-07T19:28:30.496Z,23.06
2022-08-07T19:31:00.842Z,22.96
2022-08-07T19:32:57.233Z,22.85
2022-08-07T19:35:33.199Z,22.73
2022-08-07T19:38:05.042Z,22.66
2022-08-07T19:40:50.139Z,22.60
2022-08-07T19:43:48.637Z,22.55
2022-08-07T19:46:21.335Z,22.49
2022-08-07T19:49:01.828Z,22.42
2022-08-07T19:51:51.164Z,22.30
2022-08-07T19:54:33.550Z,22.26
2022-08-07T19:58:01.760Z,22.22
2022-08-07T20:00:02.157Z,22.08
2022-08-07T20:02:39.483Z,21.95
2022-08-07T20:05:11.673Z,21.90
2022-08-07T20:07:47.171Z,21.84
2022-08-07T20:10:38.059Z,21.74
2022-08-07T20:13:23.890Z,21.67
2022-08-07T20:15:59.886Z,21.55
2022-08-07T20:18:34.286Z,21.54
2022-08-07T20:21:08.019Z,21.44
2022-08-07T20:23:57.635Z,21.39
2022-08-07T20:26:38.945Z,21.31
2022-08-07T20:29:47.848Z,21.30
2022-08-07T20:32:25.128Z,21.15
2022-08-07T20:34:57.700Z,21.12
2022-08-07T20:37:34.179Z,21.04
2022-08-07T20:40:31.638Z,20.97
2022-08-07T20:42:59.135Z,20.91
2022-08-07T20:45:32.592Z,20.85
2022-08-07T20:48:29.583Z,20.76
2022-08-07T20:51:02.655Z,20.70
2022-08-07T20:54:04.785Z,20.64
2022-08-07T20:56:27.552Z,20.53
2022-08-07T20:59:00.751Z,20.47
2022-08-07T21:01:45.464Z,20.39
2022-08-07T21:04:30.930Z,20.34
2022-08-07T21:07:04.349Z,20.30
2022-08-07T21:09:52.948Z,20.24
2022-08-07T21:12:32.824Z,20.13
2022-08-07T21:15:06.767Z,20.09
2022-08-07T21:18:20.495Z,20.02
2022-08-07T21:20:33.515Z,19.91
2022-08-07T21:23:09.431Z,19.80
2022-08-07T21:25:56.958Z,19.72
2022-08-07T21:28:48.763Z,19.65
2022-08-07T21:31:49.276Z,19.58
2022-08-07T21:34:26.627Z,19.55
2022-08-07T21:37:07.384Z,19.42
2022-08-07T21:39:51.903Z,19.42
2022-08-07T21:42:49.529Z,19.35
2022-08-07T21:46:07.528Z,19.29
2022-08-07T21:48:28.280Z,19.16
2022-08-07T21:51:05.307Z,19.18
2022-08-07T21:53:46.505Z,19.11
2022-08-07T21:56:40.338Z,19.02
2022-08-07T22:00:05.395Z,18.94
2022-08-07T22:02:34.382Z,18.91
2022-08-07T22:05:06.076Z,18.79
2022-08-07T22:07:58.829Z,18.79
2022-08-07T22:10:35.716Z,18.72
2022-08-07T22:13:09.384Z,18.67
2022-08-07T22:16:39.549Z,18.59
2022-08-07T22:18:38.651Z,18.55
2022-08-07T22:21:17.411Z,18.45
2022-08-07T22:23:55.028Z,18.40
2022-08-07T22:26:32.064Z,18.31
2022-08-07T22:29:08.987Z,18.32
2022-08-07T22:31:59.905Z,18.30
2022-08-07T22:34:49.745Z,18.18
2022-08-07T22:38:04.325Z,18.09
2022-08-07T22:40:26.089Z,18.03
2022-08-07T22:43:05.551Z,17.89
2022-08-07T22:46:40.766Z,17.94
2022-08-07T22:49:01.287Z,17.84
2022-08-07T22:51:52.893Z,17.79
2022-08-07T22:54:36.792Z,17.72
2022-08-07T22:57:16.886Z,17.68
2022-08-07T22:59:54.859Z,17.62
2022-08-07T23:02:34.067Z,17.53
2022-08-07T23:06:07.352Z,17.50
2022-08-07T23:08:54.553Z,17.38
2022-08-07T23:11:35.293Z,17.37
2022-08-07T23:14:34.268Z,17.32
2022-08-07T23:17:20.476Z,17.26
2022-08-07T23:20:14.345Z,17.21
2022-08-07T23:22:58.087Z,17.17
2022-08-07T23:25:36.864Z,17.13
2022-08-07T23:28:28.509Z,17.10
2022-08-07T23:31:13.671Z,17.06
2022-08-07T23:34:21.243Z,16.98
2022-08-07T23:37:20.512Z,16.94
2022-08-07T23:39:55.332Z,16.89
2022-08-07T23:42:31.277Z,16.87
2022-08-07T23:45:33.429Z,16.82
2022-08-07T23:48:34.162Z,16.80
2022-08-07T23:51:12.401Z,16.75
2022-08-07T23:54:04.533Z,16.70
2022-08-07T23:56:53.490Z,16.65
